createdAt,value
2018-10-07T00:00:38.611Z,92.30
2018-10-07T00:03:08.056Z,92.10
2018-10-07T00:05:36.861Z,92.20
2018-10-07T00:08:07.040Z,92.40
2018-10-07T00:10:37.626Z,92.50
2018-10-07T00:13:06.685Z,93.00
2018-10-07T00:15:35.613Z,93.30
2018-10-07T00:18:04.558Z,94.00
2018-10-07T00:20:33.608Z,94.10
2018-10-07T00:23:02.229Z,94.60
2018-10-07T00:25:30.868Z,95.20
2018-10-07T00:27:59.394Z,95.30
2018-10-07T00:30:28.624Z,95.50
2018-10-07T00:32:57.688Z,95.40
2018-10-07T00:35:26.551Z,95.20
2018-10-07T00:37:57.514Z,95.40
2018-10-07T00:40:26.455Z,95.50
2018-10-07T00:42:56.076Z,95.90
2018-10-07T00:45:25.118Z,96.30
2018-10-07T00:47:53.913Z,96.30
2018-10-07T00:50:22.585Z,96.10
2018-10-07T00:52:51.500Z,96.30
2018-10-07T00:55:21.763Z,96.30
2018-10-07T00:57:51.162Z,96.40
2018-10-07T01:00:19.743Z,96.50
2018-10-07T01:02:49.181Z,96.60
2018-10-07T01:05:17.961Z,96.90
2018-10-07T01:07:46.766Z,97.10
2018-10-07T01:10:15.861Z,96.90
2018-10-07T01:12:44.575Z,96.80
2018-10-07T01:15:14.250Z,96.60
2018-10-07T01:17:42.664Z,96.30
2018-10-07T01:20:12.370Z,96.20
2018-10-07T01:22:40.895Z,96.10
2018-10-07T01:25:10.042Z,95.90
2018-10-07T01:27:39.320Z,95.70
2018-10-07T01:30:11.777Z,95.50
2018-10-07T01:32:40.474Z,95.40
2018-10-07T01:35:10.332Z,95.40
2018-10-07T01:37:39.469Z,95.40
2018-10-07T01:40:08.093Z,95.60
2018-10-07T01:42:36.673Z,95.60
2018-10-07T01:45:05.533Z,95.60
2018-10-07T01:47:34.510Z,95.60
2018-10-07T01:50:03.218Z,95.60
2018-10-07T01:52:31.937Z,95.60
2018-10-07T01:55:01.133Z,95.70
2018-10-07T01:57:30.855Z,95.70
2018-10-07T01:59:59.955Z,95.80
2018-10-07T02:02:29.137Z,95.90
2018-10-07T02:04:57.927Z,95.90
2018-10-07T02:07:26.513Z,96.00
2018-10-07T02:09:55.149Z,95.90
2018-10-07T02:12:23.892Z,96.10
2018-10-07T02:14:52.677Z,96.10
2018-10-07T02:17:21.576Z,96.10
2018-10-07T02:19:50.414Z,95.90
2018-10-07T02:22:19.049Z,95.70
2018-10-07T02:24:48.475Z,95.70
2018-10-07T02:27:18.675Z,95.90
2018-10-07T02:29:47.244Z,95.70
2018-10-07T02:32:16.008Z,95.30
2018-10-07T02:34:45.143Z,95.10
2018-10-07T02:37:13.729Z,94.90
2018-10-07T02:39:42.401Z,95.20
2018-10-07T02:42:15.079Z,95.10
2018-10-07T02:44:44.704Z,94.90
2018-10-07T02:47:13.941Z,95.00
2018-10-07T02:49:44.266Z,95.10
2018-10-07T02:52:13.522Z,95.10
2018-10-07T02:54:44.417Z,95.00
2018-10-07T02:57:14.549Z,95.20
2018-10-07T02:59:43.302Z,95.20
2018-10-07T03:02:12.428Z,95.30
2018-10-07T03:04:41.947Z,95.30
2018-10-07T03:07:10.697Z,95.30
2018-10-07T03:09:39.268Z,95.40
2018-10-07T03:12:10.496Z,95.40
2018-10-07T03:14:39.200Z,95.40
2018-10-07T03:17:10.542Z,95.40
2018-10-07T03:19:39.190Z,95.40
2018-10-07T03:22:08.588Z,95.40
2018-10-07T03:24:37.145Z,95.40
2018-10-07T03:27:05.556Z,95.40
2018-10-07T03:29:34.156Z,94.80
2018-10-07T03:32:03.942Z,94.80
2018-10-07T03:34:32.732Z,95.30
2018-10-07T03:37:01.352Z,95.60
2018-10-07T03:39:29.898Z,96.20
2018-10-07T03:41:58.451Z,96.80
2018-10-07T03:44:27.162Z,96.90
2018-10-07T03:46:56.562Z,97.00
2018-10-07T03:49:25.904Z,97.20
2018-10-07T03:51:55.370Z,97.20
2018-10-07T03:54:24.609Z,97.60
2018-10-07T03:56:53.244Z,97.60
2018-10-07T03:59:21.753Z,96.80
2018-10-07T04:01:50.291Z,97.20
2018-10-07T04:04:18.803Z,97.40
2018-10-07T04:06:47.883Z,98.00
2018-10-07T04:09:16.638Z,98.30
2018-10-07T04:11:45.174Z,98.30
2018-10-07T04:14:14.218Z,99.00
2018-10-07T04:16:42.695Z,99.30
2018-10-07T04:19:11.742Z,99.80
2018-10-07T04:21:44.387Z,99.80
2018-10-07T04:24:12.955Z,99.90
2018-10-07T04:26:41.873Z,99.70
2018-10-07T04:29:10.364Z,99.90
2018-10-07T04:31:39.139Z,99.60
2018-10-07T04:34:08.754Z,99.70
2018-10-07T04:36:37.404Z,99.90
2018-10-07T04:39:13.236Z,99.90
2018-10-07T04:41:42.431Z,99.90
2018-10-07T04:44:11.176Z,99.90
2018-10-07T04:46:39.862Z,99.90
2018-10-07T04:49:08.606Z,99.60
2018-10-07T04:51:38.552Z,98.50
2018-10-07T04:54:07.397Z,98.80
2018-10-07T04:56:36.944Z,98.90
2018-10-07T04:59:05.455Z,98.40
2018-10-07T05:01:34.013Z,98.40
2018-10-07T05:04:02.521Z,98.00
2018-10-07T05:06:33.482Z,98.10
2018-10-07T05:09:08.517Z,97.90
2018-10-07T05:11:37.589Z,97.30
2018-10-07T05:14:08.392Z,97.20
2018-10-07T05:16:38.240Z,97.50
2018-10-07T05:19:07.478Z,96.80
2018-10-07T05:21:36.023Z,96.90
2018-10-07T05:24:04.476Z,97.10
2018-10-07T05:26:33.156Z,96.90
2018-10-07T05:29:01.636Z,96.70
2018-10-07T05:31:30.978Z,96.70
2018-10-07T05:33:59.501Z,96.90
2018-10-07T05:36:28.501Z,96.70
2018-10-07T05:38:56.994Z,95.70
2018-10-07T05:41:25.627Z,94.60
2018-10-07T05:43:54.572Z,94.70
2018-10-07T05:46:23.203Z,94.90
2018-10-07T05:48:52.422Z,95.20
2018-10-07T05:51:20.925Z,95.40
2018-10-07T05:53:49.727Z,95.50
2018-10-07T05:56:18.214Z,95.20
2018-10-07T05:58:47.289Z,94.90
2018-10-07T06:01:23.596Z,95.20
2018-10-07T06:04:01.165Z,95.40
2018-10-07T06:06:30.212Z,95.70
2018-10-07T06:09:00.670Z,95.70
2018-10-07T06:11:29.155Z,95.70
2018-10-07T06:13:57.594Z,96.00
2018-10-07T06:16:26.156Z,95.10
2018-10-07T06:18:54.629Z,94.70
2018-10-07T06:21:23.262Z,94.50
2018-10-07T06:23:51.886Z,94.30
2018-10-07T06:26:20.692Z,94.50
2018-10-07T06:28:53.161Z,94.40
2018-10-07T06:31:21.659Z,93.60
2018-10-07T06:33:51.140Z,93.40
2018-10-07T06:36:19.640Z,93.70
2018-10-07T06:38:48.525Z,92.40
2018-10-07T06:41:17.394Z,92.00
2018-10-07T06:43:47.838Z,92.00
2018-10-07T06:46:16.958Z,92.10
2018-10-07T06:48:45.586Z,90.50
2018-10-07T06:51:14.270Z,91.10
2018-10-07T06:53:42.781Z,90.70
2018-10-07T06:56:11.378Z,91.20
2018-10-07T06:58:41.094Z,86.80
2018-10-07T07:01:09.933Z,84.40
2018-10-07T07:03:38.459Z,79.80
2018-10-07T07:06:07.981Z,79.80
2018-10-07T07:08:36.749Z,79.00
2018-10-07T07:11:05.433Z,80.40
2018-10-07T07:13:34.391Z,80.40
2018-10-07T07:16:02.872Z,78.50
2018-10-07T07:18:31.710Z,78.00
2018-10-07T07:21:00.332Z,76.00
2018-10-07T07:23:30.946Z,75.80
2018-10-07T07:26:00.563Z,75.50
2018-10-07T07:28:30.465Z,75.50
2018-10-07T07:31:02.873Z,74.60
2018-10-07T07:33:31.992Z,74.70
2018-10-07T07:36:00.783Z,74.70
2018-10-07T07:38:29.654Z,75.00
2018-10-07T07:40:58.108Z,73.70
2018-10-07T07:43:26.739Z,71.90
2018-10-07T07:45:55.258Z,69.60
2018-10-07T07:48:23.875Z,69.50
2018-10-07T07:50:52.401Z,68.70
2018-10-07T07:53:22.135Z,69.50
2018-10-07T07:55:50.528Z,70.50
2018-10-07T07:58:19.185Z,68.80
2018-10-07T08:00:47.778Z,69.10
2018-10-07T08:03:17.265Z,65.70
2018-10-07T08:05:45.720Z,66.10
2018-10-07T08:08:14.270Z,65.80
2018-10-07T08:10:43.333Z,66.50
2018-10-07T08:13:11.954Z,66.20
2018-10-07T08:15:40.647Z,58.90
2018-10-07T08:18:10.078Z,59.00
2018-10-07T08:20:40.041Z,61.80
2018-10-07T08:23:09.545Z,60.90
2018-10-07T08:25:38.441Z,48.50
2018-10-07T08:28:08.647Z,33.30
2018-10-07T08:30:39.185Z,28.50
2018-10-07T08:33:08.413Z,26.00
2018-10-07T08:35:37.442Z,25.80
2018-10-07T08:38:06.065Z,23.50
2018-10-07T08:40:35.675Z,22.20
2018-10-07T08:43:04.203Z,20.40
2018-10-07T08:45:32.741Z,19.60
2018-10-07T08:48:01.255Z,17.40
2018-10-07T08:50:30.399Z,13.10
2018-10-07T08:52:58.980Z,10.80
2018-10-07T08:55:27.515Z,10.80
2018-10-07T08:57:55.997Z,12.10
2018-10-07T09:00:24.586Z,12.30
2018-10-07T09:05:35.332Z,11.90
2018-10-07T09:08:04.223Z,10.50
2018-10-07T09:10:32.922Z,9.60
2018-10-07T09:13:01.661Z,10.10
2018-10-07T09:15:30.753Z,9.30
2018-10-07T09:17:59.327Z,10.00
2018-10-07T09:20:30.880Z,9.50
2018-10-07T09:22:59.646Z,8.50
2018-10-07T09:25:31.945Z,8.40
2018-10-07T09:28:02.131Z,6.00
2018-10-07T09:33:16.745Z,7.60
2018-10-07T09:35:51.160Z,7.40
2018-10-07T09:38:25.023Z,7.70
2018-10-07T09:40:53.492Z,6.50
2018-10-07T09:43:25.019Z,5.70
2018-10-07T09:45:56.587Z,6.20
2018-10-07T09:48:26.098Z,5.10
2018-10-07T09:51:02.920Z,6.60
2018-10-07T09:53:35.902Z,7.00
2018-10-07T09:56:09.991Z,7.10
2018-10-07T09:58:38.738Z,7.20
2018-10-07T10:01:07.864Z,7.20
2018-10-07T10:03:38.474Z,7.30
2018-10-07T10:06:07.822Z,7.80
2018-10-07T10:08:36.420Z,8.60
2018-10-07T10:11:05.025Z,9.00
2018-10-07T10:13:34.734Z,9.00
2018-10-07T10:16:04.359Z,8.30
2018-10-07T10:18:38.672Z,9.20
2018-10-07T10:21:14.989Z,8.50
2018-10-07T10:23:52.553Z,7.70
2018-10-07T10:26:29.873Z,8.20
2018-10-07T10:29:07.523Z,8.10
2018-10-07T10:31:45.101Z,7.80
2018-10-07T10:34:19.021Z,8.40
2018-10-07T10:36:56.422Z,8.10
2018-10-07T10:39:33.543Z,8.00
2018-10-07T10:42:10.127Z,8.50
2018-10-07T10:44:47.125Z,8.10
2018-10-07T10:47:24.979Z,5.90
2018-10-07T10:50:02.436Z,6.70
2018-10-07T10:52:36.577Z,6.00
2018-10-07T10:55:09.994Z,5.90
2018-10-07T10:57:44.006Z,6.20
2018-10-07T11:00:18.610Z,6.10
2018-10-07T11:02:56.006Z,6.50
2018-10-07T11:05:30.856Z,6.00
2018-10-07T11:08:08.190Z,6.10
2018-10-07T11:10:42.857Z,4.80
2018-10-07T11:13:21.977Z,3.90
2018-10-07T11:15:59.235Z,4.60
2018-10-07T11:18:39.532Z,4.70
2018-10-07T11:21:19.927Z,4.50
2018-10-07T11:23:53.512Z,3.50
2018-10-07T11:26:31.303Z,4.60
2018-10-07T11:29:06.492Z,3.80
2018-10-07T11:31:43.981Z,2.90
2018-10-07T11:34:21.258Z,2.80
2018-10-07T11:36:57.153Z,3.60
2018-10-07T11:39:34.711Z,3.80
2018-10-07T11:42:08.297Z,3.70
2018-10-07T11:44:45.769Z,2.90
2018-10-07T11:47:24.584Z,3.50
2018-10-07T11:50:01.071Z,3.50
2018-10-07T11:52:38.689Z,3.50
2018-10-07T11:55:07.480Z,3.20
2018-10-07T11:57:36.497Z,4.30
2018-10-07T12:00:05.687Z,4.30
2018-10-07T12:02:35.071Z,4.60
2018-10-07T12:05:07.318Z,4.40
2018-10-07T12:07:39.019Z,4.90
2018-10-07T12:10:12.386Z,4.70
2018-10-07T12:12:42.758Z,4.90
2018-10-07T12:15:14.615Z,5.00
2018-10-07T12:17:45.372Z,6.20
2018-10-07T12:20:17.623Z,5.20
2018-10-07T12:22:49.568Z,5.10
2018-10-07T12:25:31.981Z,5.50
2018-10-07T12:28:07.504Z,5.10
2018-10-07T12:30:39.008Z,5.10
2018-10-07T12:33:12.845Z,4.40
2018-10-07T12:35:45.484Z,4.00
2018-10-07T12:38:24.321Z,4.00
2018-10-07T12:40:58.395Z,3.20
2018-10-07T12:43:34.127Z,3.90
2018-10-07T12:46:10.026Z,4.50
2018-10-07T12:48:50.371Z,4.20
2018-10-07T12:51:22.213Z,3.80
2018-10-07T12:53:57.440Z,3.20
2018-10-07T12:56:34.615Z,3.10
2018-10-07T12:59:13.615Z,3.80
2018-10-07T13:01:45.697Z,3.70
2018-10-07T13:04:19.139Z,3.80
2018-10-07T13:06:52.084Z,4.30
2018-10-07T13:09:22.184Z,3.30
2018-10-07T13:11:51.870Z,2.70
2018-10-07T13:14:27.849Z,3.00
2018-10-07T13:16:58.884Z,3.10
2018-10-07T13:19:33.874Z,2.10
2018-10-07T13:22:07.661Z,3.10
2018-10-07T13:24:39.967Z,2.60
2018-10-07T13:27:12.865Z,2.60
2018-10-07T13:29:42.919Z,1.90
2018-10-07T13:32:12.287Z,2.00
2018-10-07T13:34:42.187Z,2.50
2018-10-07T13:37:15.377Z,2.20
2018-10-07T13:42:28.265Z,2.60
2018-10-07T13:45:01.775Z,2.80
2018-10-07T13:47:33.317Z,2.60
2018-10-07T13:50:05.227Z,2.00
2018-10-07T13:52:36.266Z,2.70
2018-10-07T13:55:12.588Z,2.50
2018-10-07T14:00:27.173Z,2.90
2018-10-07T14:03:32.557Z,3.20
2018-10-07T14:06:03.104Z,3.20
2018-10-07T14:08:33.662Z,3.10
2018-10-07T14:11:22.442Z,2.30
2018-10-07T14:13:51.076Z,2.40
2018-10-07T14:16:20.621Z,2.70
2018-10-07T14:18:50.195Z,2.20
2018-10-07T14:21:23.900Z,2.60
2018-10-07T14:23:54.691Z,2.70
2018-10-07T14:26:24.712Z,2.60
2018-10-07T14:28:54.760Z,2.30
2018-10-07T14:31:24.664Z,2.90
2018-10-07T14:33:54.275Z,3.30
2018-10-07T14:36:23.712Z,2.80
2018-10-07T14:38:55.381Z,2.70
2018-10-07T14:41:27.527Z,3.20
2018-10-07T14:43:56.265Z,3.20
2018-10-07T14:46:25.989Z,3.20
2018-10-07T14:51:56.133Z,3.30
2018-10-07T14:54:25.725Z,2.90
2018-10-07T14:56:59.457Z,2.70
2018-10-07T14:59:38.432Z,3.00
2018-10-07T15:02:17.705Z,2.90
2018-10-07T15:04:53.109Z,3.20
2018-10-07T15:07:27.254Z,3.20
2018-10-07T15:10:03.574Z,3.20
2018-10-07T15:12:33.746Z,3.20
2018-10-07T15:15:05.195Z,3.10
2018-10-07T15:17:39.244Z,3.00
2018-10-07T15:20:08.666Z,3.00
2018-10-07T15:22:37.307Z,3.00
2018-10-07T15:25:06.255Z,3.00
2018-10-07T15:27:35.804Z,3.00
2018-10-07T15:30:05.495Z,3.00
2018-10-07T15:32:42.375Z,3.40
2018-10-07T15:35:11.174Z,3.50
2018-10-07T15:37:39.771Z,3.10
2018-10-07T15:40:08.461Z,2.90
2018-10-07T15:42:37.726Z,3.70
2018-10-07T15:45:06.489Z,3.40
2018-10-07T15:47:35.946Z,3.40
2018-10-07T15:50:04.506Z,3.20
2018-10-07T15:52:33.308Z,3.60
2018-10-07T15:55:02.969Z,4.00
2018-10-07T15:57:32.634Z,3.90
2018-10-07T16:00:01.508Z,3.90
2018-10-07T16:02:30.529Z,4.50
2018-10-07T16:04:59.107Z,4.50
2018-10-07T16:07:27.813Z,4.70
2018-10-07T16:09:56.697Z,4.60
2018-10-07T16:12:26.116Z,4.90
2018-10-07T16:15:00.352Z,4.90
2018-10-07T16:17:29.442Z,5.10
2018-10-07T16:20:01.076Z,5.00
2018-10-07T16:22:29.825Z,5.60
2018-10-07T16:25:02.420Z,5.70
2018-10-07T16:27:31.383Z,6.20
2018-10-07T16:30:04.846Z,5.80
2018-10-07T16:32:37.812Z,6.10
2018-10-07T16:35:07.327Z,6.00
2018-10-07T16:37:38.701Z,6.70
2018-10-07T16:40:08.691Z,6.90
2018-10-07T16:42:37.313Z,7.00
2018-10-07T16:45:13.849Z,7.40
2018-10-07T16:47:46.651Z,7.70
2018-10-07T16:50:17.064Z,8.10
2018-10-07T16:52:47.101Z,8.50
2018-10-07T16:55:16.193Z,8.90
2018-10-07T16:57:48.165Z,9.00
2018-10-07T17:00:17.176Z,9.80
2018-10-07T17:02:49.910Z,9.90
2018-10-07T17:05:19.787Z,10.20
2018-10-07T17:07:50.883Z,10.60
2018-10-07T17:10:20.415Z,10.60
2018-10-07T17:12:49.877Z,10.60
2018-10-07T17:15:18.367Z,11.80
2018-10-07T17:17:47.113Z,11.60
2018-10-07T17:20:15.965Z,11.90
2018-10-07T17:22:45.606Z,12.30
2018-10-07T17:25:14.857Z,12.80
2018-10-07T17:27:43.479Z,12.90
2018-10-07T17:30:12.316Z,12.90
2018-10-07T17:32:46.895Z,12.90
2018-10-07T17:35:15.713Z,13.40
2018-10-07T17:37:49.161Z,13.50
2018-10-07T17:40:22.438Z,13.60
2018-10-07T17:42:52.377Z,14.00
2018-10-07T17:45:22.766Z,14.50
2018-10-07T17:47:57.258Z,14.40
2018-10-07T17:50:28.262Z,14.50
2018-10-07T17:52:59.714Z,14.80
2018-10-07T17:55:32.538Z,15.40
2018-10-07T17:58:09.179Z,15.20
2018-10-07T18:00:45.916Z,15.40
2018-10-07T18:03:17.063Z,15.50
2018-10-07T18:05:47.089Z,15.60
2018-10-07T18:08:19.164Z,15.50
2018-10-07T18:10:55.500Z,15.90
2018-10-07T18:13:28.657Z,16.60
2018-10-07T18:16:01.355Z,17.00
2018-10-07T18:18:31.714Z,17.10
2018-10-07T18:21:01.113Z,17.70
2018-10-07T18:23:30.174Z,17.90
2018-10-07T18:26:00.242Z,18.30
2018-10-07T18:28:33.412Z,18.30
2018-10-07T18:31:03.202Z,18.30
2018-10-07T18:33:36.139Z,18.30
2018-10-07T18:36:07.038Z,18.60
2018-10-07T18:38:38.519Z,18.90
2018-10-07T18:41:07.205Z,19.50
2018-10-07T18:43:37.576Z,19.50
2018-10-07T18:46:07.407Z,19.90
2018-10-07T18:48:36.612Z,20.00
2018-10-07T18:51:05.221Z,20.40
2018-10-07T18:53:34.148Z,21.50
2018-10-07T18:56:02.877Z,21.90
2018-10-07T18:58:31.574Z,22.20
2018-10-07T19:01:00.214Z,22.90
2018-10-07T19:03:28.642Z,22.60
2018-10-07T19:05:57.170Z,22.10
2018-10-07T19:08:26.699Z,22.20
2018-10-07T19:10:55.073Z,23.00
2018-10-07T19:13:23.534Z,24.20
2018-10-07T19:15:52.018Z,24.70
2018-10-07T19:18:21.249Z,24.20
2018-10-07T19:20:50.218Z,24.60
2018-10-07T19:23:19.918Z,24.50
2018-10-07T19:25:48.453Z,24.50
2018-10-07T19:28:17.140Z,24.50
2018-10-07T19:30:45.718Z,25.00
2018-10-07T19:33:14.076Z,25.40
2018-10-07T19:35:42.634Z,25.70
2018-10-07T19:38:11.229Z,25.60
2018-10-07T19:40:39.904Z,26.20
2018-10-07T19:43:08.383Z,25.80
2018-10-07T19:45:36.843Z,26.30
2018-10-07T19:48:05.348Z,27.40
2018-10-07T19:50:34.483Z,26.70
2018-10-07T19:53:03.012Z,27.50
2018-10-07T19:55:33.208Z,28.10
2018-10-07T19:58:01.625Z,28.60
2018-10-07T20:00:30.131Z,29.70
2018-10-07T20:02:59.231Z,29.40
2018-10-07T20:05:27.890Z,29.60
2018-10-07T20:07:57.044Z,29.90
2018-10-07T20:10:26.450Z,30.30
2018-10-07T20:12:55.154Z,30.30
2018-10-07T20:15:23.858Z,30.30
2018-10-07T20:17:52.617Z,30.70
2018-10-07T20:20:21.240Z,30.70
2018-10-07T20:22:49.800Z,30.30
2018-10-07T20:25:18.517Z,30.40
2018-10-07T20:27:47.147Z,30.40
2018-10-07T20:30:15.690Z,31.40
2018-10-07T20:32:44.220Z,30.80
2018-10-07T20:35:12.792Z,30.50
2018-10-07T20:37:41.977Z,30.70
2018-10-07T20:40:10.834Z,31.80
2018-10-07T20:42:40.224Z,32.70
2018-10-07T20:45:08.828Z,35.60
2018-10-07T20:47:37.620Z,37.90
2018-10-07T20:50:06.188Z,38.20
2018-10-07T20:52:35.381Z,40.40
2018-10-07T20:55:03.868Z,40.40
2018-10-07T20:57:32.212Z,41.20
2018-10-07T21:00:00.735Z,42.40
2018-10-07T21:02:29.198Z,42.60
2018-10-07T21:04:58.224Z,44.20
2018-10-07T21:07:26.653Z,44.60
2018-10-07T21:09:55.878Z,45.50
2018-10-07T21:12:24.279Z,48.00
2018-10-07T21:14:52.949Z,48.10
2018-10-07T21:17:21.394Z,49.40
2018-10-07T21:19:50.052Z,49.60
2018-10-07T21:22:18.436Z,51.40
2018-10-07T21:24:46.875Z,50.30
2018-10-07T21:27:15.244Z,50.10
2018-10-07T21:29:44.052Z,50.60
2018-10-07T21:32:12.469Z,51.40
2018-10-07T21:34:41.958Z,51.00
2018-10-07T21:37:10.405Z,52.70
2018-10-07T21:39:41.635Z,53.30
2018-10-07T21:42:10.389Z,55.10
2018-10-07T21:44:39.336Z,55.30
2018-10-07T21:47:07.995Z,55.90
2018-10-07T21:49:36.606Z,58.20
2018-10-07T21:52:05.746Z,60.80
2018-10-07T21:54:34.739Z,63.10
2018-10-07T21:57:03.691Z,67.10
2018-10-07T21:59:33.189Z,71.00
2018-10-07T22:02:01.924Z,74.00
2018-10-07T22:04:31.437Z,75.90
2018-10-07T22:07:00.458Z,76.30
2018-10-07T22:09:28.907Z,80.20
2018-10-07T22:11:57.407Z,81.90
2018-10-07T22:14:25.765Z,82.80
2018-10-07T22:16:55.537Z,82.30
2018-10-07T22:19:24.750Z,82.60
2018-10-07T22:21:53.424Z,82.60
2018-10-07T22:24:21.940Z,85.00
2018-10-07T22:26:51.381Z,87.20
2018-10-07T22:29:20.540Z,85.70
2018-10-07T22:31:49.792Z,83.30
2018-10-07T22:34:18.231Z,82.10
2018-10-07T22:36:46.684Z,81.50
2018-10-07T22:39:16.030Z,81.70
2018-10-07T22:41:44.466Z,82.00
2018-10-07T22:44:12.966Z,81.80
2018-10-07T22:46:41.489Z,81.80
2018-10-07T22:49:10.102Z,82.00
2018-10-07T22:51:39.402Z,81.60
2018-10-07T22:54:07.911Z,81.10
2018-10-07T22:56:36.389Z,81.30
2018-10-07T22:59:04.860Z,81.80
2018-10-07T23:01:33.387Z,82.70
2018-10-07T23:04:02.052Z,83.70
2018-10-07T23:06:30.686Z,84.80
2018-10-07T23:08:59.179Z,86.30
2018-10-07T23:11:27.663Z,88.10
2018-10-07T23:13:56.220Z,90.10
2018-10-07T23:16:24.749Z,90.90
2018-10-07T23:18:53.306Z,91.30
2018-10-07T23:21:22.858Z,91.70
2018-10-07T23:23:51.397Z,92.30
2018-10-07T23:26:20.371Z,92.80
2018-10-07T23:28:48.864Z,93.50
2018-10-07T23:31:17.766Z,93.50
2018-10-07T23:33:46.427Z,94.00
2018-10-07T23:36:15.126Z,94.20
2018-10-07T23:38:43.778Z,94.20
2018-10-07T23:41:12.380Z,94.20
2018-10-07T23:43:40.755Z,94.40
2018-10-07T23:46:09.652Z,94.70
2018-10-07T23:48:39.038Z,95.20
2018-10-07T23:51:07.496Z,95.50
2018-10-07T23:53:37.105Z,95.70
2018-10-07T23:56:06.691Z,95.90
2018-10-07T23:58:35.559Z,96.00
